Time;durP1;ratioP1;P1;durP2;ratioP2;P2;SDS_P1;SDS_P2;PMS_P1;PMS_P2;Temp;Humidity;BMP_temperature;BMP_pressure;BME280_temperature;BME280_humidity;BME280_pressure;Samples;Min_cycle;Max_cycle;Signal;HPM_P1;HPM_P2
2021/08/26 00:00:06;;;;;;;7.25;3.80;;;15.20;99.90;;;;;;2086021;28;20033;-71
2021/08/26 00:01:17;;;;;;;10.48;3.95;;;15.10;99.90;;;;;;2086212;28;20021;-72
2021/08/26 00:06:19;;;;;;;12.68;4.35;;;15.00;99.90;;;;;;2080913;28;20453;-71
2021/08/26 00:07:20;;;;;;;9.80;4.15;;;14.90;99.90;;;;;;2080643;28;20673;-72
2021/08/26 00:08:22;;;;;;;9.40;4.13;;;14.90;99.90;;;;;;2085989;28;20021;-71
2021/08/26 00:09:23;;;;;;;14.32;4.75;;;14.90;99.90;;;;;;2086221;28;20028;-72
2021/08/26 00:10:24;;;;;;;8.07;4.43;;;14.90;99.90;;;;;;2086203;28;20049;-71
2021/08/26 00:11:25;;;;;;;12.85;4.55;;;14.80;99.90;;;;;;2086150;28;20022;-72
2021/08/26 00:12:25;;;;;;;14.30;4.57;;;14.90;99.90;;;;;;2083053;28;20033;-73
2021/08/26 00:13:26;;;;;;;11.05;4.50;;;14.90;99.90;;;;;;2080060;28;20046;-71
2021/08/26 00:14:27;;;;;;;17.08;4.13;;;14.80;99.90;;;;;;2079612;28;20022;-71
2021/08/26 00:15:28;;;;;;;12.18;4.85;;;14.80;99.90;;;;;;2086520;28;20025;-72
2021/08/26 00:16:28;;;;;;;13.02;4.95;;;14.80;99.90;;;;;;2089487;28;20655;-71
2021/08/26 00:17:29;;;;;;;13.23;4.40;;;14.90;99.90;;;;;;2079902;28;20437;-72
2021/08/26 00:18:30;;;;;;;11.25;4.38;;;14.90;99.90;;;;;;2078633;28;20029;-71
2021/08/26 00:19:31;;;;;;;11.70;4.43;;;14.90;99.90;;;;;;2081322;28;20018;-72
2021/08/26 00:20:32;;;;;;;11.52;4.45;;;14.90;99.90;;;;;;2080254;28;20033;-72
2021/08/26 00:21:33;;;;;;;15.57;4.65;;;15.00;99.90;;;;;;2071406;28;20041;-71
2021/08/26 00:22:35;;;;;;;13.55;4.53;;;15.00;99.90;;;;;;2081313;28;20112;-71
2021/08/26 00:23:36;;;;;;;;;;;15.00;99.90;;;;;;2083691;28;20594;-72
2021/08/26 00:24:38;;;;;;;11.77;4.00;;;15.00;99.90;;;;;;2084092;28;19905;-71
2021/08/26 00:25:38;;;;;;;7.63;3.88;;;15.00;99.90;;;;;;2080188;28;20385;-72
2021/08/26 00:26:39;;;;;;;17.58;4.57;;;15.00;99.90;;;;;;2078133;28;20030;-72
2021/08/26 00:27:39;;;;;;;16.13;4.82;;;15.00;99.90;;;;;;2082117;28;20025;-72
2021/08/26 00:28:41;;;;;;;12.10;4.40;;;15.00;99.90;;;;;;2081814;28;20026;-72
2021/08/26 00:29:41;;;;;;;8.55;4.18;;;15.00;99.90;;;;;;2082524;28;20025;-72
2021/08/26 00:30:42;;;;;;;6.97;4.03;;;14.90;99.90;;;;;;2083798;28;20025;-72
2021/08/26 00:31:43;;;;;;;10.90;4.32;;;14.90;99.90;;;;;;2083966;28;20451;-72
2021/08/26 00:32:43;;;;;;;13.95;4.05;;;14.90;99.90;;;;;;2079413;28;20037;-71
2021/08/26 00:33:44;;;;;;;14.00;4.57;;;14.90;99.90;;;;;;2076806;28;20044;-72
2021/08/26 00:34:45;;;;;;;9.60;4.10;;;14.80;99.90;;;;;;2075997;28;20398;-72
2021/08/26 00:35:45;;;;;;;10.30;3.97;;;14.80;99.90;;;;;;2078828;28;20842;-72
2021/08/26 00:36:46;;;;;;;11.25;4.18;;;14.80;99.90;;;;;;2077628;28;20032;-71
2021/08/26 00:37:47;;;;;;;8.50;4.25;;;14.80;99.90;;;;;;2078920;28;20079;-71
2021/08/26 00:38:48;;;;;;;17.08;4.20;;;14.80;99.90;;;;;;2080432;28;20653;-71
2021/08/26 00:39:49;;;;;;;13.43;3.75;;;14.70;99.90;;;;;;2080317;28;20021;-73
2021/08/26 00:40:52;;;;;;;12.65;4.07;;;14.70;99.90;;;;;;2078018;28;20385;-71
2021/08/26 00:41:53;;;;;;;10.35;4.53;;;14.70;99.90;;;;;;2077712;28;20029;-70
2021/08/26 00:42:54;;;;;;;10.85;4.35;;;14.70;99.90;;;;;;2081240;28;20572;-71
2021/08/26 00:43:55;;;;;;;17.13;4.35;;;14.60;99.90;;;;;;2081512;28;20029;-71
2021/08/26 00:44:56;;;;;;;8.85;3.95;;;14.60;99.90;;;;;;2079195;28;20096;-72
2021/08/26 00:45:58;;;;;;;11.45;4.55;;;14.60;99.90;;;;;;2081711;28;20547;-71
2021/08/26 00:46:59;;;;;;;9.95;3.78;;;14.70;99.90;;;;;;2081819;28;20067;-71
2021/08/26 00:48:02;;;;;;;9.23;4.30;;;14.70;99.90;;;;;;2081309;28;20029;-71
2021/08/26 00:49:11;;;;;;;12.52;4.60;;;14.70;99.90;;;;;;2082457;28;20021;-72
2021/08/26 00:50:12;;;;;;;10.68;4.63;;;14.70;99.90;;;;;;2073982;28;20201;-71
2021/08/26 00:51:13;;;;;;;11.00;3.55;;;14.70;99.90;;;;;;2072550;28;20030;-73
2021/08/26 00:52:14;;;;;;;16.27;3.97;;;14.70;99.90;;;;;;2080111;28;20025;-71
2021/08/26 00:53:14;;;;;;;11.82;4.60;;;14.70;99.90;;;;;;2077462;28;20026;-72
2021/08/26 00:54:15;;;;;;;12.90;4.40;;;14.70;99.90;;;;;;2078897;28;20025;-72
2021/08/26 00:55:18;;;;;;;12.55;4.53;;;14.70;99.90;;;;;;2078940;28;20049;-70
2021/08/26 00:56:19;;;;;;;9.55;4.25;;;14.70;99.90;;;;;;2079388;28;20447;-72
2021/08/26 00:57:21;;;;;;;9.35;4.20;;;14.80;99.90;;;;;;2081029;28;20055;-72
2021/08/26 00:58:22;;;;;;;10.40;4.07;;;14.70;99.90;;;;;;2077306;28;20075;-71
2021/08/26 00:59:26;;;;;;;13.23;4.50;;;14.70;99.90;;;;;;2081093;28;20498;-72
2021/08/26 01:00:26;;;;;;;9.93;4.32;;;14.80;99.90;;;;;;2081763;28;20035;-71
2021/08/26 01:01:51;;;;;;;12.13;3.90;;;14.80;99.90;;;;;;2079747;28;20025;-71
2021/08/26 01:03:13;;;;;;;13.23;4.40;;;14.80;99.90;;;;;;2077805;28;20599;-71
2021/08/26 01:04:27;;;;;;;10.40;4.30;;;14.80;99.90;;;;;;2083642;28;20066;-71
2021/08/26 01:05:35;;;;;;;10.23;4.32;;;14.80;99.90;;;;;;2078284;28;20041;-71
2021/08/26 01:07:01;;;;;;;10.65;3.97;;;14.70;99.90;;;;;;2079900;28;20025;-71
2021/08/26 01:08:08;;;;;;;11.25;3.90;;;14.70;99.90;;;;;;2078809;28;20083;-72
2021/08/26 01:09:14;;;;;;;12.00;4.15;;;14.70;99.90;;;;;;2080484;28;20013;-72
2021/08/26 01:10:18;;;;;;;13.68;3.80;;;14.70;99.90;;;;;;2079926;28;20021;-71
2021/08/26 01:11:21;;;;;;;8.18;4.20;;;14.70;99.90;;;;;;2080047;28;20461;-71
2021/08/26 01:12:24;;;;;;;7.57;3.58;;;14.60;99.90;;;;;;2080839;28;20108;-71
2021/08/26 01:13:40;;;;;;;16.00;4.40;;;14.60;99.90;;;;;;2079330;28;20089;-72
2021/08/26 01:14:41;;;;;;;10.90;4.13;;;14.50;99.90;;;;;;2079449;28;20101;-71
2021/08/26 01:16:08;;;;;;;10.57;4.20;;;14.50;99.90;;;;;;2080093;28;20045;-71
2021/08/26 01:17:08;;;;;;;14.82;3.90;;;14.50;99.90;;;;;;2075200;28;20264;-72
2021/08/26 01:18:09;;;;;;;12.65;4.07;;;14.40;99.90;;;;;;2079351;28;20026;-72
2021/08/26 01:19:11;;;;;;;11.48;3.70;;;14.40;99.90;;;;;;2077957;28;20017;-71
2021/08/26 01:20:12;;;;;;;12.13;4.25;;;14.40;99.90;;;;;;2080633;28;20013;-71
2021/08/26 01:21:19;;;;;;;14.90;4.03;;;14.40;99.90;;;;;;2080519;28;20352;-71
2021/08/26 01:22:21;;;;;;;8.02;3.67;;;14.40;99.90;;;;;;2080480;28;20528;-71
2021/08/26 01:23:23;;;;;;;9.80;3.80;;;14.40;99.90;;;;;;2079941;28;20054;-72
2021/08/26 01:24:28;;;;;;;11.25;3.80;;;14.30;99.90;;;;;;2079118;28;20100;-72
2021/08/26 01:25:29;;;;;;;9.60;4.05;;;14.30;99.90;;;;;;2075776;28;20481;-72
2021/08/26 01:26:34;;;;;;;14.55;4.65;;;14.30;99.90;;;;;;2078348;28;20483;-71
2021/08/26 01:27:59;;;;;;;8.85;3.70;;;14.30;99.90;;;;;;2079039;28;20417;-71
2021/08/26 01:29:01;;;;;;;9.25;3.90;;;14.30;99.90;;;;;;2077400;28;20176;-71
2021/08/26 01:30:07;;;;;;;11.70;3.80;;;14.30;99.90;;;;;;2081022;28;20096;-71
2021/08/26 01:31:08;;;;;;;9.02;4.43;;;14.30;99.90;;;;;;2087595;28;20017;-73
2021/08/26 01:32:08;;;;;;;12.20;3.80;;;14.30;99.90;;;;;;2081629;28;20144;-71
2021/08/26 01:33:09;;;;;;;11.23;3.83;;;14.30;99.90;;;;;;2077628;28;20078;-72
2021/08/26 01:34:12;;;;;;;11.20;3.70;;;14.40;99.90;;;;;;2077503;28;20101;-74
2021/08/26 01:35:13;;;;;;;12.50;3.65;;;14.40;99.90;;;;;;2081959;28;20022;-71
2021/08/26 01:36:14;;;;;;;8.77;3.47;;;14.50;99.90;;;;;;2081416;28;20668;-73
2021/08/26 01:37:19;;;;;;;8.30;3.25;;;14.50;99.90;;;;;;2081168;28;20033;-72
2021/08/26 01:38:24;;;;;;;7.72;3.88;;;14.50;99.90;;;;;;2079455;28;20026;-72
2021/08/26 01:39:25;;;;;;;9.02;3.90;;;14.60;99.90;;;;;;2080115;28;20029;-71
2021/08/26 01:40:41;;;;;;;9.77;3.47;;;14.60;99.90;;;;;;2082367;28;20025;-73
2021/08/26 01:41:44;;;;;;;9.68;3.00;;;14.60;99.90;;;;;;2078754;28;20030;-70
2021/08/26 01:42:45;;;;;;;10.52;3.35;;;14.60;99.90;;;;;;2073102;28;20530;-72
2021/08/26 01:43:49;;;;;;;11.05;3.47;;;14.60;99.90;;;;;;2077842;28;20084;-72
2021/08/26 01:44:50;;;;;;;12.23;3.15;;;14.70;99.90;;;;;;2079457;28;20027;-72
2021/08/26 01:45:50;;;;;;;11.45;3.30;;;14.70;99.90;;;;;;2078012;28;20022;-71
2021/08/26 01:47:05;;;;;;;12.57;3.90;;;14.70;99.90;;;;;;2079296;28;20112;-72
2021/08/26 01:48:09;;;;;;;8.23;3.15;;;14.70;99.90;;;;;;2078035;28;20025;-71
2021/08/26 01:49:10;;;;;;;9.02;3.22;;;14.80;99.90;;;;;;2079296;28;20393;-72
2021/08/26 01:50:10;;;;;;;10.63;3.45;;;14.70;99.90;;;;;;2095068;28;20024;-71
2021/08/26 01:51:11;;;;;;;11.27;2.83;;;14.80;99.90;;;;;;2094940;28;20024;-71
2021/08/26 01:52:18;;;;;;;8.35;2.90;;;14.70;99.90;;;;;;2086653;28;20032;-72
2021/08/26 01:53:18;;;;;;;9.30;2.97;;;14.70;99.90;;;;;;2088657;28;20809;-72
2021/08/26 01:54:19;;;;;;;8.02;2.90;;;14.70;99.90;;;;;;2081724;28;20100;-71
2021/08/26 01:55:21;;;;;;;7.70;3.08;;;14.70;99.90;;;;;;2082133;28;20459;-72
2021/08/26 01:56:22;;;;;;;8.82;2.90;;;14.70;99.90;;;;;;2080954;28;20493;-70
2021/08/26 01:57:25;;;;;;;11.05;3.28;;;14.80;99.90;;;;;;2078012;28;20045;-72
2021/08/26 01:58:25;;;;;;;8.23;2.95;;;14.80;99.90;;;;;;2077528;28;20022;-71
2021/08/26 01:59:27;;;;;;;6.53;2.70;;;14.70;99.90;;;;;;2080796;28;20080;-72
2021/08/26 02:00:27;;;;;;;8.93;2.70;;;14.80;99.90;;;;;;2075169;28;20195;-71
2021/08/26 02:01:28;;;;;;;8.43;2.75;;;14.80;99.90;;;;;;2078264;28;20033;-72
2021/08/26 02:02:29;;;;;;;8.13;2.97;;;14.80;99.90;;;;;;2074730;28;20401;-72
2021/08/26 02:03:29;;;;;;;11.98;2.80;;;14.80;99.90;;;;;;2079752;28;20029;-72
2021/08/26 02:04:30;;;;;;;8.07;2.63;;;14.80;99.90;;;;;;2080547;28;20021;-72
2021/08/26 02:05:31;;;;;;;8.93;2.58;;;14.80;99.90;;;;;;2077735;28;20100;-71
2021/08/26 02:06:32;;;;;;;6.90;2.67;;;14.80;99.90;;;;;;2077952;28;20045;-70
2021/08/26 02:07:32;;;;;;;6.60;2.90;;;14.80;99.90;;;;;;2077516;28;20033;-71
2021/08/26 02:08:33;;;;;;;6.93;2.85;;;14.90;99.90;;;;;;2080337;28;20500;-71
2021/08/26 02:09:34;;;;;;;5.75;2.35;;;14.80;99.90;;;;;;2077746;28;20021;-72
2021/08/26 02:10:35;;;;;;;7.17;2.60;;;14.90;99.90;;;;;;2076109;28;20030;-72
2021/08/26 02:11:35;;;;;;;8.23;2.60;;;14.90;99.90;;;;;;2076932;28;20326;-71
2021/08/26 02:12:36;;;;;;;7.68;2.65;;;14.80;99.90;;;;;;2077498;28;20069;-72
2021/08/26 02:13:37;;;;;;;9.75;2.53;;;14.90;99.90;;;;;;2079644;28;20112;-72
2021/08/26 02:14:37;;;;;;;13.98;3.22;;;14.90;99.90;;;;;;2076665;28;20018;-71
2021/08/26 02:15:38;;;;;;;6.25;2.67;;;14.90;99.90;;;;;;2075544;28;20029;-72
2021/08/26 02:16:39;;;;;;;10.95;2.75;;;14.90;99.90;;;;;;2076665;28;20079;-72
2021/08/26 02:17:39;;;;;;;8.32;2.70;;;14.90;99.90;;;;;;2069550;28;20030;-72
2021/08/26 02:18:44;;;;;;;9.27;2.03;;;14.90;99.90;;;;;;2077368;28;20017;-71
2021/08/26 02:19:44;;;;;;;7.40;2.25;;;14.90;99.90;;;;;;2076509;28;20493;-71
2021/08/26 02:20:45;;;;;;;11.30;2.60;;;14.90;99.90;;;;;;2078126;28;20052;-74
2021/08/26 02:21:45;;;;;;;10.18;2.72;;;14.90;99.90;;;;;;2078834;28;20064;-71
2021/08/26 02:22:46;;;;;;;4.95;2.28;;;14.90;99.90;;;;;;2079867;28;20417;-71
2021/08/26 02:23:48;;;;;;;7.65;2.40;;;14.90;99.90;;;;;;2077942;28;20817;-71
2021/08/26 02:24:48;;;;;;;7.53;2.30;;;14.80;99.90;;;;;;2075209;28;20485;-73
2021/08/26 02:25:49;;;;;;;10.13;2.25;;;14.90;99.90;;;;;;2069638;28;20036;-71
2021/08/26 02:26:50;;;;;;;7.25;2.28;;;14.90;99.90;;;;;;2075833;28;20017;-72
2021/08/26 02:27:50;;;;;;;7.63;2.20;;;14.90;99.90;;;;;;2072121;28;20632;-72
2021/08/26 02:28:52;;;;;;;6.43;2.30;;;14.90;99.90;;;;;;2078623;28;20014;-72
2021/08/26 02:29:52;;;;;;;10.50;2.47;;;14.90;99.90;;;;;;2078962;28;20520;-72
2021/08/26 02:30:53;;;;;;;7.25;2.17;;;14.80;99.90;;;;;;2077444;28;20049;-72
2021/08/26 02:31:54;;;;;;;7.35;2.10;;;14.80;99.90;;;;;;2077455;28;20026;-71
2021/08/26 02:32:54;;;;;;;7.90;2.55;;;14.80;99.90;;;;;;2073530;28;20022;-71
2021/08/26 02:33:55;;;;;;;9.00;2.63;;;14.80;99.90;;;;;;2080164;28;20416;-71
2021/08/26 02:34:57;;;;;;;7.05;1.90;;;14.80;99.90;;;;;;2076413;28;20120;-71
2021/08/26 02:35:58;;;;;;;7.25;2.20;;;14.80;99.90;;;;;;2079216;28;20037;-71
2021/08/26 02:36:58;;;;;;;8.48;2.50;;;14.80;99.90;;;;;;2074053;28;20394;-71
2021/08/26 02:37:59;;;;;;;8.20;2.53;;;14.80;99.90;;;;;;2082272;28;20079;-72
2021/08/26 02:39:00;;;;;;;7.13;2.28;;;14.80;99.90;;;;;;2078795;28;20026;-71
2021/08/26 02:40:01;;;;;;;9.18;2.33;;;14.80;99.90;;;;;;2080657;28;20033;-72
2021/08/26 02:41:01;;;;;;;7.10;2.40;;;14.80;99.90;;;;;;2077943;28;20119;-72
2021/08/26 02:42:03;;;;;;;7.32;2.10;;;14.80;99.90;;;;;;2076269;28;20123;-72
2021/08/26 02:43:04;;;;;;;7.85;2.45;;;14.80;99.90;;;;;;2076364;28;20021;-72
2021/08/26 02:44:05;;;;;;;8.60;2.33;;;14.80;99.90;;;;;;2072022;28;20457;-72
2021/08/26 02:45:06;;;;;;;10.20;2.38;;;14.80;99.90;;;;;;2075696;28;20026;-71
2021/08/26 02:46:07;;;;;;;10.07;2.28;;;14.80;99.90;;;;;;2078445;28;20029;-72
2021/08/26 02:47:07;;;;;;;6.35;2.20;;;14.80;99.90;;;;;;2078875;28;20021;-72
2021/08/26 02:48:08;;;;;;;10.90;2.28;;;14.80;99.90;;;;;;2080695;28;20032;-71
2021/08/26 02:49:09;;;;;;;7.00;2.58;;;14.80;99.90;;;;;;2077640;28;20097;-71
2021/08/26 02:50:10;;;;;;;5.55;2.40;;;14.80;99.90;;;;;;2078371;28;20033;-71
2021/08/26 02:51:11;;;;;;;7.78;2.10;;;14.80;99.90;;;;;;2073410;28;20042;-72
2021/08/26 02:52:11;;;;;;;10.27;2.20;;;14.80;99.90;;;;;;2074915;28;20033;-71
2021/08/26 02:53:12;;;;;;;8.45;2.92;;;14.80;99.90;;;;;;2080595;28;20031;-71
2021/08/26 02:54:13;;;;;;;11.68;2.80;;;14.80;99.90;;;;;;2075672;28;20026;-72
2021/08/26 02:55:13;;;;;;;10.30;2.28;;;14.70;99.90;;;;;;2079514;28;20021;-70
2021/08/26 02:56:14;;;;;;;6.15;2.20;;;14.70;99.90;;;;;;2075292;28;20521;-71
2021/08/26 02:57:15;;;;;;;9.45;2.40;;;14.70;99.90;;;;;;2080743;28;20045;-72
2021/08/26 02:58:16;;;;;;;7.05;1.92;;;14.70;99.90;;;;;;2081862;28;20101;-71
2021/08/26 02:59:17;;;;;;;9.77;2.47;;;14.70;99.90;;;;;;2079777;28;20572;-72
2021/08/26 03:00:17;;;;;;;12.23;3.00;;;14.70;99.90;;;;;;2077778;28;20069;-71
2021/08/26 03:01:18;;;;;;;8.02;2.40;;;14.70;99.90;;;;;;2075304;28;20109;-72
2021/08/26 03:02:19;;;;;;;10.25;2.20;;;14.70;99.90;;;;;;2078847;28;20416;-71
2021/08/26 03:03:19;;;;;;;8.43;2.03;;;14.70;99.90;;;;;;2081961;28;20048;-71
2021/08/26 03:04:20;;;;;;;12.48;2.17;;;14.70;99.90;;;;;;2076674;28;20021;-72
2021/08/26 03:05:20;;;;;;;14.35;2.28;;;14.70;99.90;;;;;;2080226;28;20025;-72
2021/08/26 03:06:21;;;;;;;10.23;2.40;;;14.70;99.90;;;;;;2079441;28;20025;-71
2021/08/26 03:07:22;;;;;;;12.10;2.97;;;14.70;99.90;;;;;;2078564;28;20500;-72
2021/08/26 03:08:23;;;;;;;7.60;2.33;;;14.70;99.90;;;;;;2080932;28;20413;-72
2021/08/26 03:09:24;;;;;;;7.40;2.08;;;14.70;99.90;;;;;;2078074;28;20052;-72
2021/08/26 03:10:25;;;;;;;6.03;2.10;;;14.70;99.90;;;;;;2075562;28;20565;-71
2021/08/26 03:11:26;;;;;;;7.32;2.38;;;14.70;99.90;;;;;;2077916;28;20010;-72
2021/08/26 03:12:26;;;;;;;6.40;2.50;;;14.70;99.90;;;;;;2075651;28;20029;-72
2021/08/26 03:13:27;;;;;;;9.00;2.38;;;14.60;99.90;;;;;;2075764;28;21152;-70
2021/08/26 03:14:28;;;;;;;15.95;2.72;;;14.60;99.90;;;;;;2080366;28;20025;-71
2021/08/26 03:15:29;;;;;;;6.47;1.88;;;14.60;99.90;;;;;;2078003;28;20049;-71
2021/08/26 03:16:29;;;;;;;8.65;2.72;;;14.60;99.90;;;;;;2076262;28;20096;-71
2021/08/26 03:17:30;;;;;;;7.75;2.60;;;14.60;99.90;;;;;;2079680;28;20049;-69
2021/08/26 03:18:31;;;;;;;7.30;2.33;;;14.60;99.90;;;;;;2077455;28;20412;-71
2021/08/26 03:19:32;;;;;;;7.88;2.00;;;14.50;99.90;;;;;;2078909;28;20131;-72
2021/08/26 03:20:33;;;;;;;7.47;2.30;;;14.50;99.90;;;;;;2077030;28;20481;-72
2021/08/26 03:21:34;;;;;;;3.78;1.88;;;14.50;99.90;;;;;;2069352;28;20029;-71
2021/08/26 03:22:34;;;;;;;6.85;2.13;;;14.50;99.90;;;;;;2076951;28;20470;-72
2021/08/26 03:23:35;;;;;;;12.38;2.78;;;14.50;99.90;;;;;;2075114;28;20452;-72
2021/08/26 03:24:36;;;;;;;9.30;2.08;;;14.50;99.90;;;;;;2078507;28;20037;-72
2021/08/26 03:25:36;;;;;;;8.52;2.30;;;14.60;99.90;;;;;;2078816;28;20021;-72
2021/08/26 03:26:37;;;;;;;7.75;2.30;;;14.50;99.90;;;;;;2077511;28;20037;-72
2021/08/26 03:27:38;;;;;;;7.15;2.30;;;14.50;99.90;;;;;;2080647;28;20105;-74
2021/08/26 03:28:39;;;;;;;11.55;2.08;;;14.60;99.90;;;;;;2078058;28;20021;-71
2021/08/26 03:29:39;;;;;;;12.68;2.35;;;14.50;99.90;;;;;;2077767;28;20022;-71
2021/08/26 03:30:40;;;;;;;7.18;2.17;;;14.50;99.90;;;;;;2078452;28;20466;-72
2021/08/26 03:31:41;;;;;;;9.65;2.42;;;14.50;99.90;;;;;;2082495;28;20057;-72
2021/08/26 03:32:42;;;;;;;8.27;2.25;;;14.50;99.90;;;;;;2080648;28;20029;-73
2021/08/26 03:33:42;;;;;;;4.72;2.00;;;14.50;99.90;;;;;;2078244;28;20116;-72
2021/08/26 03:34:43;;;;;;;12.32;2.60;;;14.50;99.90;;;;;;2075670;28;20488;-72
2021/08/26 03:35:45;;;;;;;7.32;2.20;;;14.50;99.90;;;;;;2077373;28;20032;-72
2021/08/26 03:36:46;;;;;;;;;;;14.50;99.90;;;;;;2078967;28;20021;-72
2021/08/26 03:37:47;;;;;;;7.82;1.75;;;14.40;99.90;;;;;;2078088;28;20000;-72
2021/08/26 03:38:47;;;;;;;9.43;2.30;;;14.40;99.90;;;;;;2080305;28;20437;-72
2021/08/26 03:39:48;;;;;;;8.63;2.22;;;14.40;99.90;;;;;;2074964;28;20160;-72
2021/08/26 03:40:49;;;;;;;11.10;2.50;;;14.40;99.90;;;;;;2083671;28;20032;-73
2021/08/26 03:41:49;;;;;;;9.63;2.60;;;14.40;99.90;;;;;;2078680;28;20053;-73
2021/08/26 03:42:50;;;;;;;7.13;2.35;;;14.30;99.90;;;;;;2080391;28;20473;-72
2021/08/26 03:43:51;;;;;;;9.80;2.15;;;14.30;99.90;;;;;;2079706;28;20029;-72
2021/08/26 03:44:52;;;;;;;11.70;2.50;;;14.30;99.90;;;;;;2078028;28;20766;-72
2021/08/26 03:45:52;;;;;;;10.68;2.40;;;14.40;99.90;;;;;;2080251;28;20025;-72
2021/08/26 03:46:53;;;;;;;10.15;2.78;;;14.30;99.90;;;;;;2077631;28;20489;-73
2021/08/26 03:47:54;;;;;;;8.50;1.90;;;14.30;99.90;;;;;;2081234;28;20029;-73
2021/08/26 03:48:55;;;;;;;7.22;2.40;;;14.30;99.90;;;;;;2082574;28;20017;-73
2021/08/26 03:49:55;;;;;;;8.63;2.10;;;14.30;99.90;;;;;;2082762;28;20025;-72
2021/08/26 03:50:56;;;;;;;6.80;2.55;;;14.30;99.90;;;;;;2081570;28;20099;-72
2021/08/26 03:51:57;;;;;;;10.10;2.58;;;14.30;99.90;;;;;;2078732;28;20109;-72
2021/08/26 03:52:57;;;;;;;6.32;2.20;;;14.20;99.90;;;;;;2077245;28;20080;-72
2021/08/26 03:53:58;;;;;;;8.05;2.80;;;14.20;99.90;;;;;;2076958;28;20109;-71
2021/08/26 03:54:59;;;;;;;12.38;2.63;;;14.20;99.90;;;;;;2081475;28;20552;-74
2021/08/26 03:55:59;;;;;;;7.25;2.42;;;14.20;99.90;;;;;;2078389;28;20025;-72
2021/08/26 03:57:00;;;;;;;6.80;2.00;;;14.20;99.90;;;;;;2080554;28;20664;-73
2021/08/26 03:58:01;;;;;;;8.30;2.30;;;14.20;99.90;;;;;;2079657;28;20025;-72
2021/08/26 03:59:01;;;;;;;11.68;2.40;;;14.20;99.90;;;;;;2081383;28;20091;-72
2021/08/26 04:00:02;;;;;;;5.47;2.08;;;14.20;99.90;;;;;;2079454;28;20057;-73
2021/08/26 04:01:07;;;;;;;7.15;2.35;;;14.20;99.90;;;;;;2077673;28;20405;-72
2021/08/26 04:02:07;;;;;;;8.55;2.38;;;14.20;99.90;;;;;;2081633;28;20129;-72
2021/08/26 04:03:08;;;;;;;13.35;2.40;;;14.20;99.90;;;;;;2080691;28;21542;-72
2021/08/26 04:04:08;;;;;;;5.32;2.13;;;14.20;99.90;;;;;;2077894;28;20057;-71
2021/08/26 04:05:09;;;;;;;7.90;2.47;;;14.20;99.90;;;;;;2079187;28;20017;-72
2021/08/26 04:06:10;;;;;;;15.13;2.83;;;14.20;99.90;;;;;;2079894;28;20021;-73
2021/08/26 04:07:12;;;;;;;13.65;2.40;;;14.20;99.90;;;;;;2083478;28;20049;-70
2021/08/26 04:08:13;;;;;;;7.78;2.30;;;14.20;99.90;;;;;;2079009;28;20478;-73
2021/08/26 04:09:13;;;;;;;10.18;3.00;;;14.30;99.90;;;;;;2080866;28;20028;-72
2021/08/26 04:10:14;;;;;;;9.25;2.22;;;14.20;99.90;;;;;;2079593;28;20446;-73
2021/08/26 04:11:15;;;;;;;7.57;2.50;;;14.20;99.90;;;;;;2078791;28;20681;-73
2021/08/26 04:12:16;;;;;;;12.03;2.80;;;14.20;99.90;;;;;;2081553;28;20029;-73
2021/08/26 04:13:16;;;;;;;6.15;2.30;;;14.20;99.90;;;;;;2078035;28;20264;-72
2021/08/26 04:14:17;;;;;;;8.43;2.20;;;14.20;99.90;;;;;;2076877;28;20018;-72
2021/08/26 04:15:18;;;;;;;11.98;2.33;;;14.20;99.90;;;;;;2078821;28;20036;-72
2021/08/26 04:16:18;;;;;;;10.25;2.47;;;14.20;99.90;;;;;;2079503;28;20045;-71
2021/08/26 04:17:20;;;;;;;7.00;2.30;;;14.20;99.90;;;;;;2081795;28;20036;-72
2021/08/26 04:18:20;;;;;;;9.73;2.20;;;14.30;99.90;;;;;;2076944;28;20497;-72
2021/08/26 04:19:21;;;;;;;7.63;2.22;;;14.30;99.90;;;;;;2078374;28;20030;-72
2021/08/26 04:20:22;;;;;;;5.35;1.90;;;14.30;99.90;;;;;;2080375;28;20120;-71
2021/08/26 04:21:22;;;;;;;5.95;1.90;;;14.30;99.90;;;;;;2078708;28;20103;-71
2021/08/26 04:22:23;;;;;;;6.47;2.63;;;14.30;99.90;;;;;;2079346;28;20402;-72
2021/08/26 04:23:24;;;;;;;8.80;1.70;;;14.40;99.90;;;;;;2075945;28;20083;-71
2021/08/26 04:24:24;;;;;;;6.15;1.90;;;14.30;99.90;;;;;;2079623;28;20037;-71
2021/08/26 04:25:25;;;;;;;5.57;2.08;;;14.30;99.90;;;;;;2081115;28;20032;-72
2021/08/26 04:26:26;;;;;;;5.50;1.92;;;14.30;99.90;;;;;;2081723;28;20095;-72
2021/08/26 04:27:27;;;;;;;6.05;1.92;;;14.30;99.90;;;;;;2077158;28;20021;-72
2021/08/26 04:28:27;;;;;;;4.78;1.80;;;14.40;99.90;;;;;;2079252;28;20022;-72
2021/08/26 04:29:28;;;;;;;9.80;2.30;;;14.30;99.90;;;;;;2076287;28;20021;-71
2021/08/26 04:30:29;;;;;;;9.80;3.10;;;14.40;99.90;;;;;;2070635;28;20026;-72
2021/08/26 04:31:29;;;;;;;10.15;2.00;;;14.40;99.90;;;;;;2079622;28;20033;-72
2021/08/26 04:32:30;;;;;;;5.45;1.60;;;14.40;99.90;;;;;;2077363;28;20056;-71
2021/08/26 04:33:31;;;;;;;11.15;1.88;;;14.40;99.90;;;;;;2080216;28;20052;-71
2021/08/26 04:34:34;;;;;;;7.50;2.05;;;14.40;99.90;;;;;;2081760;28;20366;-71
2021/08/26 04:35:35;;;;;;;6.82;1.92;;;14.40;99.90;;;;;;2078856;28;20029;-72
2021/08/26 04:36:35;;;;;;;7.82;1.98;;;14.40;99.90;;;;;;2078562;28;20510;-71
2021/08/26 04:37:36;;;;;;;7.05;1.73;;;14.40;99.90;;;;;;2081532;28;20107;-72
2021/08/26 04:38:37;;;;;;;8.90;1.98;;;14.40;99.90;;;;;;2077731;28;20057;-72
2021/08/26 04:39:38;;;;;;;9.35;2.20;;;14.40;99.90;;;;;;2083129;28;20026;-72
2021/08/26 04:40:39;;;;;;;5.85;1.77;;;14.40;99.90;;;;;;2077237;28;20477;-71
2021/08/26 04:41:40;;;;;;;4.20;1.83;;;14.40;99.90;;;;;;2072073;28;20014;-73
2021/08/26 04:42:40;;;;;;;8.98;2.05;;;14.40;99.90;;;;;;2077653;28;20030;-71
2021/08/26 04:43:41;;;;;;;6.13;1.70;;;14.40;99.90;;;;;;2079742;28;20029;-72
2021/08/26 04:44:42;;;;;;;5.35;2.05;;;14.40;99.90;;;;;;2078749;28;20033;-71
2021/08/26 04:45:42;;;;;;;5.50;2.08;;;14.40;99.90;;;;;;2080451;28;20018;-72
2021/08/26 04:46:43;;;;;;;7.38;1.80;;;14.40;99.90;;;;;;2073141;28;20028;-72
2021/08/26 04:47:44;;;;;;;7.55;1.90;;;14.30;99.90;;;;;;2069358;28;20038;-71
2021/08/26 04:48:44;;;;;;;14.98;2.38;;;14.30;99.90;;;;;;2070056;28;20113;-72
2021/08/26 04:49:45;;;;;;;6.63;1.85;;;14.30;99.90;;;;;;2081285;28;20527;-72
2021/08/26 04:50:46;;;;;;;11.35;2.40;;;14.30;99.90;;;;;;2077098;28;20045;-71
2021/08/26 04:51:46;;;;;;;14.13;1.90;;;14.30;99.90;;;;;;2079046;28;20118;-71
2021/08/26 04:52:47;;;;;;;11.00;2.20;;;14.30;99.90;;;;;;2080358;28;20040;-71
2021/08/26 04:53:48;;;;;;;8.00;2.10;;;14.40;99.90;;;;;;2078517;28;20474;-72
2021/08/26 04:54:48;;;;;;;6.35;2.20;;;14.30;99.90;;;;;;2082115;28;20033;-72
2021/08/26 04:55:49;;;;;;;6.68;1.95;;;14.30;99.90;;;;;;2070276;28;20433;-71
2021/08/26 04:56:50;;;;;;;6.53;1.98;;;14.30;99.90;;;;;;2078634;28;20036;-71
2021/08/26 04:57:50;;;;;;;7.63;1.83;;;14.30;99.90;;;;;;2072013;28;20072;-72
2021/08/26 04:58:51;;;;;;;8.15;2.28;;;14.30;99.90;;;;;;2078310;28;20060;-73
2021/08/26 04:59:52;;;;;;;6.18;1.70;;;14.30;99.90;;;;;;2081606;28;20100;-73
2021/08/26 05:00:52;;;;;;;3.33;1.75;;;14.30;99.90;;;;;;2080895;28;20038;-74
2021/08/26 05:01:53;;;;;;;9.50;1.80;;;14.30;99.90;;;;;;2076768;28;20513;-72
2021/08/26 05:02:53;;;;;;;7.13;2.45;;;14.30;99.90;;;;;;2076355;28;20022;-71
2021/08/26 05:03:54;;;;;;;6.43;1.90;;;14.30;99.90;;;;;;2075780;28;20453;-72
2021/08/26 05:04:55;;;;;;;7.13;1.70;;;14.30;99.90;;;;;;2083544;28;20159;-72
2021/08/26 05:05:56;;;;;;;9.48;1.90;;;14.30;99.90;;;;;;2084132;28;20021;-72
2021/08/26 05:06:56;;;;;;;10.77;2.22;;;14.30;99.90;;;;;;2081316;28;20018;-71
2021/08/26 05:07:57;;;;;;;4.53;1.80;;;14.30;99.90;;;;;;2065728;28;20019;-72
2021/08/26 05:08:58;;;;;;;6.95;2.60;;;14.30;99.90;;;;;;2076666;28;20496;-72
2021/08/26 05:09:58;;;;;;;12.55;2.88;;;14.20;99.90;;;;;;2082906;28;20017;-72
2021/08/26 05:10:59;;;;;;;6.93;1.80;;;14.20;99.90;;;;;;2080458;28;20028;-73
2021/08/26 05:12:03;;;;;;;5.57;1.88;;;14.20;99.90;;;;;;2074113;28;20104;-73
2021/08/26 05:13:07;;;;;;;10.30;2.20;;;14.20;99.90;;;;;;2073607;28;20509;-71
2021/08/26 05:14:07;;;;;;;7.53;1.70;;;14.20;99.90;;;;;;2076454;28;20029;-71
2021/08/26 05:15:08;;;;;;;9.13;2.53;;;14.10;99.90;;;;;;2078902;28;20026;-74
2021/08/26 05:16:09;;;;;;;7.75;1.77;;;14.10;99.90;;;;;;2078084;28;20025;-71
2021/08/26 05:17:10;;;;;;;7.78;1.80;;;14.10;99.90;;;;;;2079660;28;20071;-73
2021/08/26 05:18:11;;;;;;;7.57;1.77;;;14.10;99.90;;;;;;2081080;28;20038;-72
2021/08/26 05:19:11;;;;;;;7.20;1.50;;;14.10;99.90;;;;;;2081955;28;20028;-73
2021/08/26 05:20:12;;;;;;;6.20;1.80;;;14.00;99.90;;;;;;2079404;28;20029;-71
2021/08/26 05:21:13;;;;;;;8.30;2.08;;;14.10;99.90;;;;;;2081100;28;20460;-72
2021/08/26 05:22:14;;;;;;;7.20;1.92;;;14.10;99.90;;;;;;2080698;28;20029;-71
2021/08/26 05:23:15;;;;;;;2.67;1.80;;;14.00;99.90;;;;;;2080770;28;20017;-72